Time;durP1;ratioP1;P1;durP2;ratioP2;P2;SDS_P1;SDS_P2;PMS_P1;PMS_P2;Temp;Humidity;BMP_temperature;BMP_pressure;BME280_temperature;BME280_humidity;BME280_pressure;Samples;Min_cycle;Max_cycle;Signal;HPM_P1;HPM_P2
2022/01/19 00:01:05;;;;;;;65.07;8.32;;;;;;;;;;5112364;28;20210;-70
2022/01/19 00:03:33;;;;;;;66.00;9.35;;;;;;;;;;5112122;28;20594;-70
2022/01/19 00:06:01;;;;;;;68.18;9.75;;;;;;;;;;5112017;28;20713;-70
2022/01/19 00:08:29;;;;;;;64.47;8.48;;;;;;;;;;5111836;28;20676;-70
2022/01/19 00:10:56;;;;;;;65.97;8.00;;;;;;;;;;5112338;28;20578;-70
2022/01/19 00:13:23;;;;;;;65.63;9.10;;;;;;;;;;5112363;28;20576;-70
2022/01/19 00:15:51;;;;;;;65.35;8.45;;;;;;;;;;5112178;28;20208;-70
2022/01/19 00:18:20;;;;;;;64.03;8.00;;;;;;;;;;5093935;28;20207;-70
2022/01/19 00:20:48;;;;;;;65.50;8.90;;;;;;;;;;5091885;28;20609;-70
2022/01/19 00:23:15;;;;;;;65.70;8.27;;;;;;;;;;5092056;28;20315;-70
2022/01/19 00:25:43;;;;;;;67.05;8.43;;;;;;;;;;5091938;28;20208;-71
2022/01/19 00:28:10;;;;;;;67.53;9.40;;;;;;;;;;5092015;28;20208;-70
2022/01/19 00:30:37;;;;;;;67.45;9.30;;;;;;;;;;5092983;28;20215;-70
2022/01/19 00:33:05;;;;;;;66.47;8.93;;;;;;;;;;5094490;28;20330;-70
2022/01/19 00:35:35;;;;;;;66.78;9.60;;;;;;;;;;5102660;28;20208;-70
2022/01/19 00:38:02;;;;;;;64.80;9.55;;;;;;;;;;5113765;28;20228;-70
2022/01/19 00:40:29;;;;;;;67.10;9.02;;;;;;;;;;5109619;28;20296;-70
2022/01/19 00:42:57;;;;;;;68.68;9.73;;;;;;;;;;5112750;28;20293;-70
2022/01/19 00:45:24;;;;;;;65.43;8.75;;;;;;;;;;5114284;28;20189;-70
2022/01/19 00:47:51;;;;;;;69.30;10.20;;;;;;;;;;5114305;28;20212;-70
2022/01/19 00:50:20;;;;;;;71.35;10.32;;;;;;;;;;5111336;28;20248;-70
2022/01/19 00:52:51;;;;;;;69.65;9.68;;;;;;;;;;5095411;28;20701;-70
2022/01/19 00:55:18;;;;;;;68.80;8.18;;;;;;;;;;5095273;28;20270;-70
2022/01/19 00:57:45;;;;;;;70.55;10.55;;;;;;;;;;5095066;28;20637;-70
2022/01/19 01:00:14;;;;;;;67.95;9.50;;;;;;;;;;5094993;28;20201;-70
2022/01/19 01:02:41;;;;;;;69.55;10.65;;;;;;;;;;5094940;28;20229;-70
2022/01/19 01:05:08;;;;;;;70.20;10.50;;;;;;;;;;5095092;28;20301;-70
2022/01/19 01:07:38;;;;;;;68.10;10.00;;;;;;;;;;5094878;28;20295;-70
2022/01/19 01:10:07;;;;;;;74.22;11.48;;;;;;;;;;5095518;28;20278;-68
2022/01/19 01:12:44;;;;;;;66.47;9.75;;;;;;;;;;5094728;28;20239;-68
2022/01/19 01:15:30;;;;;;;69.28;10.40;;;;;;;;;;5095076;28;20204;-68
2022/01/19 01:20:42;;;;;;;68.68;10.43;;;;;;;;;;5094935;28;20249;-68
2022/01/19 01:23:10;;;;;;;68.40;9.63;;;;;;;;;;5113306;28;20315;-68
2022/01/19 01:25:39;;;;;;;67.85;9.32;;;;;;;;;;5115341;28;20273;-68
2022/01/19 01:28:07;;;;;;;67.85;10.20;;;;;;;;;;5114948;28;20212;-68
2022/01/19 01:30:35;;;;;;;66.95;10.82;;;;;;;;;;5115472;28;20204;-69
2022/01/19 01:33:02;;;;;;;67.90;9.63;;;;;;;;;;5114817;28;20247;-70
2022/01/19 01:35:30;;;;;;;67.28;10.20;;;;;;;;;;5114751;28;20204;-69
2022/01/19 01:37:57;;;;;;;69.97;9.30;;;;;;;;;;5114864;28;20295;-69
2022/01/19 01:40:25;;;;;;;68.10;9.90;;;;;;;;;;5115033;28;20204;-69
2022/01/19 01:42:54;;;;;;;66.00;9.18;;;;;;;;;;5114279;28;20224;-70
2022/01/19 01:45:26;;;;;;;73.78;10.75;;;;;;;;;;5114654;28;20254;-70
2022/01/19 01:48:02;;;;;;;75.13;10.50;;;;;;;;;;5114366;28;20215;-69
2022/01/19 01:53:26;;;;;;;66.28;10.50;;;;;;;;;;5113223;28;20219;-69
2022/01/19 01:55:54;;;;;;;69.65;10.35;;;;;;;;;;5114574;28;20208;-69
2022/01/19 01:58:23;;;;;;;71.30;11.23;;;;;;;;;;5114068;28;20204;-70
2022/01/19 02:00:50;;;;;;;73.40;11.30;;;;;;;;;;5114345;28;20299;-70
2022/01/19 02:03:17;;;;;;;70.63;10.63;;;;;;;;;;5114210;28;20232;-69
2022/01/19 02:06:02;;;;;;;73.80;11.38;;;;;;;;;;5114475;28;20585;-69
2022/01/19 02:08:37;;;;;;;70.07;10.77;;;;;;;;;;5114066;28;20219;-69
2022/01/19 02:11:28;;;;;;;90.15;11.52;;;;;;;;;;5114085;28;20218;-70
2022/01/19 02:16:50;;;;;;;73.57;11.40;;;;;;;;;;5111766;28;20199;-69
2022/01/19 02:22:04;;;;;;;67.82;10.18;;;;;;;;;;5114074;28;20709;-70
2022/01/19 02:24:40;;;;;;;69.68;10.52;;;;;;;;;;5113631;28;20289;-70
2022/01/19 02:27:13;;;;;;;69.55;9.95;;;;;;;;;;5097870;28;20200;-69
2022/01/19 02:40:49;;;;;;;69.55;10.65;;;;;;;;;;5093325;28;20208;-69
2022/01/19 02:43:22;;;;;;;74.68;11.65;;;;;;;;;;5093080;28;20268;-69
2022/01/19 02:51:19;;;;;;;70.68;11.73;;;;;;;;;;5093044;28;20634;-69
2022/01/19 02:53:48;;;;;;;73.18;10.50;;;;;;;;;;5092966;28;20268;-69
2022/01/19 02:56:21;;;;;;;66.50;10.57;;;;;;;;;;5091999;28;20211;-69
2022/01/19 02:58:51;;;;;;;75.05;10.65;;;;;;;;;;5091885;28;20205;-69
2022/01/19 03:09:35;;;;;;;76.75;10.45;;;;;;;;;;5092711;28;20196;-69
2022/01/19 03:12:02;;;;;;;70.93;11.48;;;;;;;;;;5092705;28;20311;-70
2022/01/19 03:14:29;;;;;;;70.72;11.30;;;;;;;;;;5092612;28;20207;-69
2022/01/19 03:16:56;;;;;;;68.47;10.40;;;;;;;;;;5092501;28;20259;-70
2022/01/19 03:19:26;;;;;;;73.35;10.77;;;;;;;;;;5092328;28;20200;-70
2022/01/19 03:21:53;;;;;;;76.07;10.55;;;;;;;;;;5092621;28;20256;-70
2022/01/19 03:24:20;;;;;;;69.03;10.18;;;;;;;;;;5092469;28;20227;-69
2022/01/19 03:26:48;;;;;;;68.63;9.80;;;;;;;;;;5092568;28;20291;-70
2022/01/19 03:29:16;;;;;;;70.13;10.50;;;;;;;;;;5092377;28;20291;-70
2022/01/19 03:31:43;;;;;;;70.45;10.48;;;;;;;;;;5109828;28;20239;-69
2022/01/19 03:34:11;;;;;;;69.22;10.07;;;;;;;;;;5112821;28;20294;-69
2022/01/19 03:36:39;;;;;;;70.45;10.88;;;;;;;;;;5112626;28;20222;-70
2022/01/19 03:39:07;;;;;;;69.75;10.63;;;;;;;;;;5112535;28;20587;-70
2022/01/19 03:41:34;;;;;;;71.05;11.05;;;;;;;;;;5112500;28;20200;-69
2022/01/19 03:44:03;;;;;;;71.88;13.00;;;;;;;;;;5112143;28;20707;-68
2022/01/19 03:46:33;;;;;;;72.80;10.65;;;;;;;;;;5112792;28;20299;-68
2022/01/19 03:49:10;;;;;;;70.45;10.55;;;;;;;;;;5112317;28;20208;-68
2022/01/19 03:51:37;;;;;;;76.55;11.15;;;;;;;;;;5112352;28;20374;-68
2022/01/19 03:54:04;;;;;;;79.00;10.27;;;;;;;;;;5112326;28;20223;-69
2022/01/19 03:56:32;;;;;;;68.50;10.60;;;;;;;;;;5112184;28;20573;-69
2022/01/19 03:58:59;;;;;;;68.30;10.05;;;;;;;;;;5111930;28;20736;-69
2022/01/19 04:01:27;;;;;;;69.55;9.93;;;;;;;;;;5110441;28;20299;-69
2022/01/19 04:04:15;;;;;;;68.88;10.00;;;;;;;;;;5112244;28;20552;-69
2022/01/19 04:06:56;;;;;;;69.35;9.70;;;;;;;;;;5111967;28;20676;-68
2022/01/19 04:09:23;;;;;;;71.32;12.00;;;;;;;;;;5112199;28;20239;-68
2022/01/19 04:11:51;;;;;;;69.00;9.85;;;;;;;;;;5112143;28;20256;-69
2022/01/19 04:14:25;;;;;;;70.00;10.57;;;;;;;;;;5112054;28;20220;-69
2022/01/19 04:16:54;;;;;;;69.80;10.68;;;;;;;;;;5112156;28;20624;-69
2022/01/19 04:19:29;;;;;;;69.95;10.57;;;;;;;;;;5111773;28;20251;-70
2022/01/19 04:21:56;;;;;;;76.75;12.35;;;;;;;;;;5112324;28;20276;-69
2022/01/19 04:24:24;;;;;;;74.45;11.82;;;;;;;;;;5111931;28;20196;-71
2022/01/19 04:27:31;;;;;;;73.80;11.30;;;;;;;;;;5112127;28;20208;-68
2022/01/19 04:29:57;;;;;;;70.15;9.75;;;;;;;;;;5111676;28;20690;-69
2022/01/19 04:32:32;;;;;;;65.97;9.40;;;;;;;;;;5112286;28;20238;-69
2022/01/19 04:35:02;;;;;;;70.55;11.50;;;;;;;;;;5091825;28;20261;-69
2022/01/19 04:37:42;;;;;;;70.93;10.05;;;;;;;;;;5091818;28;20519;-68
2022/01/19 05:02:23;;;;;;;73.57;11.93;;;;;;;;;;5091360;28;20243;-69
2022/01/19 05:04:57;;;;;;;68.95;10.45;;;;;;;;;;5093979;28;20197;-69
2022/01/19 05:07:30;;;;;;;68.82;11.55;;;;;;;;;;5111326;28;20212;-70
2022/01/19 05:10:05;;;;;;;71.70;9.93;;;;;;;;;;5112533;28;20205;-69
2022/01/19 05:15:23;;;;;;;71.78;11.02;;;;;;;;;;5095479;28;20708;-69
2022/01/19 05:17:50;;;;;;;71.15;11.52;;;;;;;;;;5111222;28;20771;-69
2022/01/19 05:20:18;;;;;;;72.93;12.63;;;;;;;;;;5115312;27;20578;-69
2022/01/19 05:22:45;;;;;;;71.15;12.35;;;;;;;;;;5115160;28;20230;-70
2022/01/19 05:25:13;;;;;;;72.47;11.43;;;;;;;;;;5115431;28;20291;-69
2022/01/19 05:27:40;;;;;;;68.85;10.85;;;;;;;;;;5114853;28;20200;-68
2022/01/19 05:30:07;;;;;;;69.63;12.15;;;;;;;;;;5115081;28;20200;-69
2022/01/19 05:32:34;;;;;;;70.07;11.18;;;;;;;;;;5115129;28;20700;-69
2022/01/19 05:35:02;;;;;;;78.70;11.50;;;;;;;;;;5115069;27;20234;-70
2022/01/19 05:37:36;;;;;;;72.45;12.88;;;;;;;;;;5113225;27;20215;-70
2022/01/19 05:40:04;;;;;;;69.07;10.60;;;;;;;;;;5114913;27;20574;-70
2022/01/19 05:42:31;;;;;;;69.72;11.10;;;;;;;;;;5114705;28;20335;-69
2022/01/19 05:44:58;;;;;;;73.22;12.70;;;;;;;;;;5114698;28;20206;-69
2022/01/19 05:47:25;;;;;;;72.05;11.15;;;;;;;;;;5114383;28;20204;-69
2022/01/19 05:49:52;;;;;;;70.88;10.88;;;;;;;;;;5114555;28;20771;-69
2022/01/19 05:52:20;;;;;;;77.60;13.00;;;;;;;;;;5114406;28;20238;-69
2022/01/19 05:54:49;;;;;;;71.95;11.80;;;;;;;;;;5114477;28;20726;-69
2022/01/19 05:57:16;;;;;;;72.68;12.65;;;;;;;;;;5114071;28;20207;-69
2022/01/19 05:59:43;;;;;;;71.30;11.65;;;;;;;;;;5114626;28;20294;-69
2022/01/19 06:02:11;;;;;;;70.80;11.45;;;;;;;;;;5114343;28;20715;-70
2022/01/19 06:04:38;;;;;;;73.10;12.40;;;;;;;;;;5114344;28;20205;-69
2022/01/19 06:07:05;;;;;;;72.65;11.32;;;;;;;;;;5114012;28;20209;-69
2022/01/19 06:09:36;;;;;;;73.45;11.95;;;;;;;;;;5097427;28;20205;-69
2022/01/19 06:12:06;;;;;;;67.78;10.48;;;;;;;;;;5093597;28;20253;-69
2022/01/19 06:14:34;;;;;;;71.82;12.65;;;;;;;;;;5093809;28;20317;-69
2022/01/19 06:17:02;;;;;;;74.32;13.40;;;;;;;;;;5093770;28;20300;-69
2022/01/19 06:19:29;;;;;;;76.97;11.52;;;;;;;;;;5093619;28;20208;-69
2022/01/19 06:21:56;;;;;;;72.05;12.90;;;;;;;;;;5093643;28;20225;-69
2022/01/19 06:24:24;;;;;;;68.70;10.57;;;;;;;;;;5093357;28;20551;-70
2022/01/19 06:26:51;;;;;;;72.30;12.05;;;;;;;;;;5093581;28;20250;-70
2022/01/19 06:29:19;;;;;;;70.00;11.05;;;;;;;;;;5093501;28;20207;-70
2022/01/19 06:31:46;;;;;;;70.10;11.32;;;;;;;;;;5094350;28;20247;-69
2022/01/19 06:34:13;;;;;;;71.90;12.32;;;;;;;;;;5093413;28;20225;-68
2022/01/19 06:36:41;;;;;;;70.65;11.93;;;;;;;;;;5093271;28;20208;-68
2022/01/19 06:39:08;;;;;;;72.32;13.50;;;;;;;;;;5092945;28;20699;-68
2022/01/19 06:41:35;;;;;;;75.93;13.65;;;;;;;;;;5091928;28;20670;-68
2022/01/19 06:44:02;;;;;;;80.90;15.35;;;;;;;;;;5093074;28;20296;-69
2022/01/19 06:46:31;;;;;;;70.88;11.05;;;;;;;;;;5093222;28;20204;-69
2022/01/19 06:48:58;;;;;;;70.38;12.20;;;;;;;;;;5092795;28;20209;-69
2022/01/19 06:51:26;;;;;;;75.55;14.65;;;;;;;;;;5092871;28;20208;-69
2022/01/19 06:53:53;;;;;;;72.88;11.15;;;;;;;;;;5093100;28;20208;-69
2022/01/19 06:56:20;;;;;;;76.93;14.25;;;;;;;;;;5093106;28;20585;-68
2022/01/19 06:58:48;;;;;;;74.88;13.07;;;;;;;;;;5092758;28;20711;-70
2022/01/19 07:01:15;;;;;;;68.85;11.77;;;;;;;;;;5093121;28;20631;-70
2022/01/19 07:03:44;;;;;;;76.32;13.93;;;;;;;;;;5092764;28;20225;-70
2022/01/19 07:06:11;;;;;;;76.30;13.02;;;;;;;;;;5092725;28;20205;-70
2022/01/19 07:08:38;;;;;;;76.75;13.38;;;;;;;;;;5092433;28;20213;-70
2022/01/19 07:11:06;;;;;;;72.00;12.02;;;;;;;;;;5092695;28;20215;-70
2022/01/19 07:13:33;;;;;;;78.13;12.57;;;;;;;;;;5110070;28;20783;-70
2022/01/19 07:16:00;;;;;;;74.50;12.50;;;;;;;;;;5113125;28;20234;-71
2022/01/19 07:18:27;;;;;;;74.05;11.45;;;;;;;;;;5113052;28;20212;-71
2022/01/19 07:20:56;;;;;;;74.90;13.13;;;;;;;;;;5113609;28;20200;-70
2022/01/19 07:23:23;;;;;;;75.60;12.68;;;;;;;;;;5113211;28;20220;-70
2022/01/19 07:25:50;;;;;;;81.28;13.48;;;;;;;;;;5113207;28;20239;-70
2022/01/19 07:28:17;;;;;;;73.18;13.77;;;;;;;;;;5112987;28;20587;-70
2022/01/19 07:30:44;;;;;;;74.97;13.50;;;;;;;;;;5113020;28;20676;-70
2022/01/19 07:33:12;;;;;;;76.03;13.30;;;;;;;;;;5112722;28;20238;-71
2022/01/19 07:35:39;;;;;;;74.90;13.27;;;;;;;;;;5113168;28;20227;-70
2022/01/19 07:38:08;;;;;;;76.28;14.07;;;;;;;;;;5112985;28;20299;-71
2022/01/19 07:40:35;;;;;;;81.60;14.60;;;;;;;;;;5112728;28;20215;-70
2022/01/19 07:43:02;;;;;;;78.35;13.85;;;;;;;;;;5112295;28;20228;-70
2022/01/19 07:45:29;;;;;;;70.57;13.43;;;;;;;;;;5111568;28;20200;-70
2022/01/19 07:47:57;;;;;;;73.35;12.45;;;;;;;;;;5112408;28;20212;-70
2022/01/19 07:50:24;;;;;;;76.45;15.30;;;;;;;;;;5112961;27;20215;-70
2022/01/19 07:52:51;;;;;;;78.30;14.05;;;;;;;;;;5113069;28;20259;-71
2022/01/19 07:55:20;;;;;;;75.45;14.02;;;;;;;;;;5113001;28;20314;-70
2022/01/19 07:57:50;;;;;;;83.65;15.07;;;;;;;;;;5112327;28;20200;-70
2022/01/19 08:00:18;;;;;;;80.55;14.75;;;;;;;;;;5112450;28;20200;-70
2022/01/19 08:02:45;;;;;;;75.13;14.50;;;;;;;;;;5112637;28;20658;-70
2022/01/19 08:05:12;;;;;;;78.25;14.30;;;;;;;;;;5112652;28;20215;-70
2022/01/19 08:07:39;;;;;;;81.43;14.30;;;;;;;;;;5111841;28;20295;-69
2022/01/19 08:10:08;;;;;;;72.93;12.95;;;;;;;;;;5112161;28;20204;-68
2022/01/19 08:12:37;;;;;;;76.53;15.13;;;;;;;;;;5111866;28;20730;-70
2022/01/19 08:15:04;;;;;;;77.18;14.18;;;;;;;;;;5112404;28;20217;-70
2022/01/19 08:17:31;;;;;;;77.03;16.48;;;;;;;;;;5110429;28;20298;-69
2022/01/19 08:19:59;;;;;;;78.70;15.68;;;;;;;;;;5112132;28;20299;-70
2022/01/19 08:22:26;;;;;;;76.80;16.33;;;;;;;;;;5112090;28;20220;-68
2022/01/19 08:24:53;;;;;;;78.63;14.73;;;;;;;;;;5112160;28;20749;-70
2022/01/19 08:27:20;;;;;;;76.25;15.10;;;;;;;;;;5112092;28;20748;-70
2022/01/19 08:29:49;;;;;;;75.93;14.63;;;;;;;;;;5113517;28;20290;-70
2022/01/19 08:32:16;;;;;;;71.75;12.93;;;;;;;;;;5111907;28;20230;-69
2022/01/19 08:34:43;;;;;;;79.97;14.15;;;;;;;;;;5112097;28;20204;-70
2022/01/19 08:37:14;;;;;;;77.68;14.27;;;;;;;;;;5111759;28;20218;-70
2022/01/19 08:39:42;;;;;;;87.60;15.65;;;;;;;;;;5112344;28;20261;-70
2022/01/19 08:42:09;;;;;;;81.18;13.93;;;;;;;;;;5112105;28;20238;-70
2022/01/19 08:44:36;;;;;;;78.28;14.13;;;;;;;;;;5112389;28;20350;-69
2022/01/19 08:47:05;;;;;;;84.03;16.17;;;;;;;;;;5112316;28;20287;-70
2022/01/19 08:49:32;;;;;;;77.05;15.85;;;;;;;;;;5110360;28;20219;-70
2022/01/19 08:51:59;;;;;;;79.93;15.05;;;;;;;;;;5112046;28;20246;-70
2022/01/19 08:54:26;;;;;;;76.93;14.25;;;;;;;;;;5114515;28;20636;-69
2022/01/19 08:56:54;;;;;;;72.70;13.70;;;;;;;;;;5115764;28;20223;-70
2022/01/19 08:59:22;;;;;;;82.85;14.35;;;;;;;;;;5114937;28;20216;-70
2022/01/19 09:01:49;;;;;;;75.63;14.00;;;;;;;;;;5115830;28;20311;-70
2022/01/19 09:04:17;;;;;;;79.57;15.95;;;;;;;;;;5115695;28;20680;-70
2022/01/19 09:06:44;;;;;;;81.10;15.40;;;;;;;;;;5115579;28;20664;-70
2022/01/19 09:09:11;;;;;;;76.85;15.27;;;;;;;;;;5115057;28;20300;-70
2022/01/19 09:11:39;;;;;;;75.88;14.90;;;;;;;;;;5115714;28;20224;-70
2022/01/19 09:14:07;;;;;;;79.97;15.13;;;;;;;;;;5115755;28;20208;-70
2022/01/19 09:16:34;;;;;;;83.43;15.40;;;;;;;;;;5115557;27;20232;-70
2022/01/19 09:19:02;;;;;;;78.97;16.00;;;;;;;;;;5114883;28;20422;-70
2022/01/19 09:21:30;;;;;;;78.47;14.63;;;;;;;;;;5114076;28;20311;-70
2022/01/19 09:23:58;;;;;;;75.43;15.00;;;;;;;;;;5115418;28;20204;-70
2022/01/19 09:26:25;;;;;;;76.57;13.80;;;;;;;;;;5115523;28;20291;-70
2022/01/19 09:28:52;;;;;;;75.70;13.43;;;;;;;;;;5115064;28;20295;-70
2022/01/19 09:31:19;;;;;;;73.60;13.48;;;;;;;;;;5115166;28;20682;-70
2022/01/19 09:33:54;;;;;;;76.38;14.02;;;;;;;;;;5115062;28;20300;-70
2022/01/19 09:36:31;;;;;;;74.50;13.27;;;;;;;;;;5114899;28;20262;-70
2022/01/19 09:39:00;;;;;;;78.97;13.85;;;;;;;;;;5114922;28;20208;-70
2022/01/19 09:41:28;;;;;;;77.18;13.60;;;;;;;;;;5114927;28;20618;-70
2022/01/19 09:43:55;;;;;;;82.03;15.40;;;;;;;;;;5115036;28;20577;-70
2022/01/19 09:46:23;;;;;;;71.47;12.70;;;;;;;;;;5114816;28;20230;-70
2022/01/19 09:48:50;;;;;;;71.80;12.20;;;;;;;;;;5114530;28;20243;-71
2022/01/19 09:51:18;;;;;;;74.50;14.00;;;;;;;;;;5112757;28;20214;-69
2022/01/19 09:53:47;;;;;;;71.65;12.85;;;;;;;;;;5114970;28;20228;-69
2022/01/19 09:56:15;;;;;;;73.60;13.10;;;;;;;;;;5114979;27;20307;-69
2022/01/19 09:58:43;;;;;;;71.88;13.02;;;;;;;;;;5114999;28;20211;-69
2022/01/19 10:01:10;;;;;;;74.95;12.68;;;;;;;;;;5117304;28;20206;-69
2022/01/19 10:03:37;;;;;;;70.68;12.07;;;;;;;;;;5133030;27;20224;-69
2022/01/19 10:06:07;;;;;;;71.40;12.40;;;;;;;;;;5134378;28;20291;-68
2022/01/19 10:08:36;;;;;;;72.25;11.93;;;;;;;;;;5133367;28;20212;-69
2022/01/19 10:11:08;;;;;;;75.22;13.23;;;;;;;;;;5134366;28;20278;-69
2022/01/19 10:19:15;;;;;;;69.90;10.03;;;;;;;;;;5118262;28;20432;-69
2022/01/19 10:21:56;;;;;;;72.27;11.70;;;;;;;;;;5114122;28;20489;-69
2022/01/19 10:24:33;;;;;;;69.50;10.27;;;;;;;;;;5111678;28;20448;-69
2022/01/19 10:27:15;;;;;;;72.00;10.80;;;;;;;;;;5115340;28;20441;-69
2022/01/19 10:29:44;;;;;;;68.73;10.30;;;;;;;;;;5114578;28;20881;-69
2022/01/19 10:32:11;;;;;;;70.37;11.23;;;;;;;;;;5113862;28;20545;-69
2022/01/19 10:34:38;;;;;;;66.87;10.07;;;;;;;;;;5113463;27;20542;-69
2022/01/19 10:37:05;;;;;;;71.13;10.37;;;;;;;;;;5113316;28;20493;-69
2022/01/19 10:39:42;;;;;;;65.80;9.23;;;;;;;;;;5113372;28;20454;-69
2022/01/19 10:42:11;;;;;;;66.33;9.10;;;;;;;;;;5113507;28;20996;-69
2022/01/19 10:44:39;;;;;;;65.97;9.47;;;;;;;;;;5113742;27;20446;-69
2022/01/19 10:47:08;;;;;;;69.13;10.30;;;;;;;;;;5112521;27;20439;-69
2022/01/19 10:49:47;;;;;;;66.10;10.20;;;;;;;;;;5113744;28;20453;-69
2022/01/19 10:52:26;;;;;;;66.00;9.33;;;;;;;;;;5113219;28;20720;-70
2022/01/19 10:54:53;;;;;;;70.23;10.00;;;;;;;;;;5109671;28;20499;-70
2022/01/19 10:57:20;;;;;;;70.60;9.80;;;;;;;;;;5092668;28;20492;-70
2022/01/19 10:59:49;;;;;;;69.80;10.27;;;;;;;;;;5093001;28;20457;-70
2022/01/19 11:02:19;;;;;;;63.80;8.57;;;;;;;;;;5092997;28;20467;-69
2022/01/19 11:04:47;;;;;;;70.10;9.90;;;;;;;;;;5093102;28;20450;-69
2022/01/19 11:07:16;;;;;;;66.60;10.80;;;;;;;;;;5092398;28;20455;-69
2022/01/19 11:09:45;;;;;;;69.47;10.13;;;;;;;;;;5092850;28;20468;-69
2022/01/19 11:12:16;;;;;;;64.73;9.23;;;;;;;;;;5092857;28;20466;-69
2022/01/19 11:14:43;;;;;;;67.10;10.60;;;;;;;;;;5092871;28;20839;-69
2022/01/19 11:17:11;;;;;;;66.30;9.20;;;;;;;;;;5091630;28;20548;-69
2022/01/19 11:19:39;;;;;;;65.67;9.57;;;;;;;;;;5092747;28;20442;-69
2022/01/19 11:22:30;;;;;;;66.90;10.07;;;;;;;;;;5092565;28;20485;-69
2022/01/19 11:25:02;;;;;;;69.97;9.27;;;;;;;;;;5092593;28;20457;-69
2022/01/19 11:27:36;;;;;;;69.00;9.93;;;;;;;;;;5092919;28;20927;-69
2022/01/19 11:30:14;;;;;;;64.20;8.53;;;;;;;;;;5112822;28;20533;-69
2022/01/19 11:32:41;;;;;;;66.30;9.03;;;;;;;;;;5113060;27;20461;-69
2022/01/19 11:35:11;;;;;;;71.57;10.43;;;;;;;;;;5112970;28;20533;-70
2022/01/19 11:37:40;;;;;;;67.33;8.90;;;;;;;;;;5112638;28;20525;-70
2022/01/19 11:40:10;;;;;;;65.10;9.57;;;;;;;;;;5112800;28;20485;-70
2022/01/19 11:42:37;;;;;;;64.50;8.97;;;;;;;;;;5112504;28;20458;-70
2022/01/19 11:45:06;;;;;;;65.60;8.80;;;;;;;;;;5112520;28;20450;-69
2022/01/19 11:47:33;;;;;;;65.27;8.17;;;;;;;;;;5112014;28;20565;-70
2022/01/19 11:50:01;;;;;;;68.10;8.53;;;;;;;;;;5112602;28;20536;-70
2022/01/19 11:52:53;;;;;;;66.87;8.70;;;;;;;;;;5112456;28;20476;-70
2022/01/19 11:55:22;;;;;;;68.07;9.30;;;;;;;;;;5112314;28;21013;-69
2022/01/19 11:57:50;;;;;;;66.33;9.67;;;;;;;;;;5111878;28;20434;-70
2022/01/19 12:00:19;;;;;;;69.27;9.40;;;;;;;;;;5097197;28;20534;-69
2022/01/19 12:02:47;;;;;;;68.27;10.70;;;;;;;;;;5112049;28;20470;-70
2022/01/19 12:05:16;;;;;;;65.57;9.10;;;;;;;;;;5112386;28;20450;-70
2022/01/19 12:07:45;;;;;;;65.40;9.57;;;;;;;;;;5112099;28;20486;-71
2022/01/19 12:10:14;;;;;;;67.20;9.23;;;;;;;;;;5112122;28;20540;-71
2022/01/19 12:12:47;;;;;;;64.73;9.83;;;;;;;;;;5111775;28;21004;-69
2022/01/19 12:15:31;;;;;;;67.67;10.47;;;;;;;;;;5112404;28;20450;-69
2022/01/19 12:18:08;;;;;;;64.67;10.03;;;;;;;;;;5111227;28;20506;-69
2022/01/19 12:20:51;;;;;;;66.87;10.37;;;;;;;;;;5111609;28;20457;-70
2022/01/19 12:23:30;;;;;;;67.80;10.20;;;;;;;;;;5112047;28;20498;-70
2022/01/19 12:25:59;;;;;;;65.77;9.87;;;;;;;;;;5114442;28;20560;-70
2022/01/19 12:28:39;;;;;;;64.67;8.67;;;;;;;;;;5115571;28;20451;-71
2022/01/19 12:31:24;;;;;;;75.20;12.13;;;;;;;;;;5115964;28;20541;-72
2022/01/19 12:34:15;;;;;;;65.20;8.73;;;;;;;;;;5104171;28;20533;-72
2022/01/19 12:36:43;;;;;;;64.20;8.20;;;;;;;;;;5100856;28;20453;-70
2022/01/19 12:39:29;;;;;;;64.40;8.30;;;;;;;;;;5115790;28;20445;-70
2022/01/19 12:41:59;;;;;;;64.07;7.70;;;;;;;;;;5116309;28;20552;-71
2022/01/19 12:44:39;;;;;;;62.63;8.20;;;;;;;;;;5116220;28;20538;-70
2022/01/19 12:47:26;;;;;;;64.30;7.70;;;;;;;;;;5115853;28;20830;-71
2022/01/19 12:49:54;;;;;;;63.00;7.70;;;;;;;;;;5115650;28;20928;-71
2022/01/19 12:52:21;;;;;;;62.10;7.60;;;;;;;;;;5116092;28;20467;-71
2022/01/19 12:54:49;;;;;;;61.87;6.80;;;;;;;;;;5116098;28;20474;-70
2022/01/19 12:57:18;;;;;;;65.03;7.40;;;;;;;;;;5115822;28;20446;-70
2022/01/19 12:59:47;;;;;;;62.90;6.97;;;;;;;;;;5115874;28;20457;-69
2022/01/19 13:02:16;;;;;;;65.40;7.70;;;;;;;;;;5115846;28;20480;-70
2022/01/19 13:04:45;;;;;;;69.37;7.73;;;;;;;;;;5102721;28;20472;-69
2022/01/19 13:07:16;;;;;;;66.10;7.60;;;;;;;;;;5094994;28;20889;-69
2022/01/19 13:09:59;;;;;;;62.97;7.97;;;;;;;;;;5095255;28;21004;-70
2022/01/19 13:12:37;;;;;;;66.53;8.93;;;;;;;;;;5095217;28;20466;-70
2022/01/19 13:15:04;;;;;;;64.00;7.47;;;;;;;;;;5095041;28;20451;-69
2022/01/19 13:17:40;;;;;;;65.83;8.70;;;;;;;;;;5094969;28;20435;-70
2022/01/19 13:20:09;;;;;;;66.40;9.30;;;;;;;;;;5095036;28;20435;-70
2022/01/19 13:22:43;;;;;;;67.37;9.27;;;;;;;;;;5094824;28;20465;-69
2022/01/19 13:25:15;;;;;;;68.60;8.30;;;;;;;;;;5094750;28;20442;-70
2022/01/19 13:27:44;;;;;;;68.67;8.53;;;;;;;;;;5094891;28;20483;-69
2022/01/19 13:30:15;;;;;;;67.20;8.90;;;;;;;;;;5094749;28;20450;-69
2022/01/19 13:32:42;;;;;;;67.23;9.77;;;;;;;;;;5094756;28;20477;-70
2022/01/19 13:35:10;;;;;;;69.40;8.70;;;;;;;;;;5094552;28;20450;-69
2022/01/19 13:37:39;;;;;;;69.07;9.40;;;;;;;;;;5094949;28;20450;-68
2022/01/19 13:40:07;;;;;;;65.30;8.50;;;;;;;;;;5093711;28;21030;-69
2022/01/19 13:42:37;;;;;;;66.80;9.30;;;;;;;;;;5094536;28;20561;-69
2022/01/19 13:45:10;;;;;;;64.20;8.60;;;;;;;;;;5094649;28;20463;-70
2022/01/19 13:47:54;;;;;;;69.00;9.70;;;;;;;;;;5094284;28;20482;-69
2022/01/19 13:50:21;;;;;;;67.10;8.83;;;;;;;;;;5094311;28;20743;-68
2022/01/19 13:52:48;;;;;;;65.80;8.90;;;;;;;;;;5094346;28;20550;-69
2022/01/19 13:55:20;;;;;;;66.43;9.20;;;;;;;;;;5094295;28;20451;-69
2022/01/19 13:57:47;;;;;;;64.50;8.00;;;;;;;;;;5094052;28;20471;-71
2022/01/19 14:00:17;;;;;;;65.07;8.73;;;;;;;;;;5094212;28;20453;-68
2022/01/19 14:02:56;;;;;;;66.70;9.07;;;;;;;;;;5094322;28;20985;-68
2022/01/19 14:05:35;;;;;;;64.47;7.50;;;;;;;;;;5094242;28;20458;-70
2022/01/19 14:08:02;;;;;;;64.17;8.30;;;;;;;;;;5092628;28;20479;-69
2022/01/19 14:10:39;;;;;;;66.80;8.57;;;;;;;;;;5093840;28;21005;-69
2022/01/19 14:13:21;;;;;;;65.20;7.00;;;;;;;;;;5093545;28;20549;-69
2022/01/19 14:15:49;;;;;;;63.07;6.90;;;;;;;;;;5093236;28;20447;-69
2022/01/19 14:18:17;;;;;;;65.90;7.40;;;;;;;;;;5093769;28;20439;-70
2022/01/19 14:20:44;;;;;;;64.60;7.50;;;;;;;;;;5093912;28;20538;-70
2022/01/19 14:23:13;;;;;;;64.57;7.30;;;;;;;;;;5093766;28;20469;-70
2022/01/19 14:25:40;;;;;;;64.27;7.20;;;;;;;;;;5093611;28;20451;-69
2022/01/19 14:28:14;;;;;;;64.40;6.70;;;;;;;;;;5093754;28;20486;-70
2022/01/19 14:30:41;;;;;;;67.90;8.03;;;;;;;;;;5094912;28;20871;-70
2022/01/19 14:33:12;;;;;;;67.27;8.27;;;;;;;;;;5101789;28;20478;-70
2022/01/19 14:35:40;;;;;;;65.70;7.87;;;;;;;;;;5106984;28;20822;-70
2022/01/19 14:38:13;;;;;;;63.37;7.03;;;;;;;;;;5105883;28;20518;-70
2022/01/19 14:40:49;;;;;;;65.63;7.63;;;;;;;;;;5105856;28;20457;-70
2022/01/19 14:43:18;;;;;;;66.10;7.50;;;;;;;;;;5105872;28;20487;-69
2022/01/19 14:45:50;;;;;;;67.23;8.77;;;;;;;;;;5104798;28;20446;-69
2022/01/19 14:48:19;;;;;;;67.73;8.87;;;;;;;;;;5105434;28;20478;-70
2022/01/19 14:50:47;;;;;;;67.70;9.30;;;;;;;;;;5104288;28;20974;-70
2022/01/19 14:53:14;;;;;;;65.07;8.17;;;;;;;;;;5106548;28;21017;-70
2022/01/19 14:55:42;;;;;;;64.97;7.90;;;;;;;;;;5105978;28;20439;-69
2022/01/19 14:58:10;;;;;;;66.20;7.70;;;;;;;;;;5105985;28;20443;-70
2022/01/19 15:00:38;;;;;;;63.40;7.07;;;;;;;;;;5107397;28;20470;-69
2022/01/19 15:03:06;;;;;;;66.33;6.33;;;;;;;;;;5102505;28;20554;-69
2022/01/19 15:05:35;;;;;;;64.90;7.07;;;;;;;;;;5101787;28;20458;-70
2022/01/19 15:08:04;;;;;;;64.78;7.45;;;;;;;;;;5098146;28;20574;-69
2022/01/19 15:10:31;;;;;;;65.30;6.80;;;;;;;;;;5096269;28;20255;-70
2022/01/19 15:12:59;;;;;;;64.00;7.27;;;;;;;;;;5113517;28;20736;-70
2022/01/19 15:15:28;;;;;;;64.90;7.07;;;;;;;;;;5114304;28;20446;-69
2022/01/19 15:17:56;;;;;;;63.28;6.20;;;;;;;;;;5113573;28;20449;-69
2022/01/19 15:20:24;;;;;;;65.68;8.00;;;;;;;;;;5113592;28;20206;-69
2022/01/19 15:22:59;;;;;;;64.65;7.15;;;;;;;;;;5113526;28;20310;-69
2022/01/19 15:25:26;;;;;;;64.50;7.05;;;;;;;;;;5113205;27;20203;-69
2022/01/19 15:27:54;;;;;;;64.82;7.60;;;;;;;;;;5112738;28;20686;-69
2022/01/19 15:30:21;;;;;;;64.32;6.70;;;;;;;;;;5113109;28;20568;-69
2022/01/19 15:32:48;;;;;;;63.45;7.25;;;;;;;;;;5112778;28;20220;-69
2022/01/19 15:35:17;;;;;;;74.97;8.75;;;;;;;;;;5113215;28;20204;-69
2022/01/19 15:37:44;;;;;;;63.47;6.78;;;;;;;;;;5112722;28;20295;-68
2022/01/19 15:40:13;;;;;;;68.00;8.40;;;;;;;;;;5112944;27;20208;-69
2022/01/19 15:42:41;;;;;;;64.75;7.93;;;;;;;;;;5111261;28;20231;-68